createdAt,value
2019-05-28T00:02:12.676Z,4.97
2019-05-28T00:04:41.530Z,8.77
2019-05-28T00:07:10.474Z,7.97
2019-05-28T00:09:39.278Z,10.47
2019-05-28T00:12:08.134Z,7.77
2019-05-28T00:14:36.922Z,8.23
2019-05-28T00:17:05.775Z,10.27
2019-05-28T00:19:34.678Z,8.30
2019-05-28T00:22:03.553Z,8.40
2019-05-28T00:24:32.343Z,6.33
2019-05-28T00:27:01.338Z,5.57
2019-05-28T00:29:30.116Z,8.63
2019-05-28T00:31:58.899Z,6.00
2019-05-28T00:34:27.970Z,5.20
2019-05-28T00:36:56.883Z,4.73
2019-05-28T00:39:25.652Z,5.07
2019-05-28T00:41:54.447Z,5.57
2019-05-28T00:44:23.300Z,5.37
2019-05-28T00:46:52.458Z,5.07
2019-05-28T00:49:21.701Z,7.00
2019-05-28T00:51:51.487Z,4.30
2019-05-28T00:54:20.676Z,6.10
2019-05-28T00:56:51.077Z,7.73
2019-05-28T00:59:20.915Z,5.37
2019-05-28T01:01:49.709Z,5.97
2019-05-28T01:04:18.661Z,3.37
2019-05-28T01:06:47.492Z,4.70
2019-05-28T01:09:16.295Z,8.37
2019-05-28T01:11:45.089Z,5.80
2019-05-28T01:14:13.937Z,6.10
2019-05-28T01:16:43.237Z,4.00
2019-05-28T01:19:12.138Z,5.73
2019-05-28T01:21:42.665Z,3.90
2019-05-28T01:24:11.680Z,7.70
2019-05-28T01:26:40.632Z,3.40
2019-05-28T01:29:09.678Z,6.90
2019-05-28T01:31:38.473Z,7.60
2019-05-28T01:34:07.282Z,5.20
2019-05-28T01:36:36.522Z,5.03
2019-05-28T01:39:06.940Z,5.30
2019-05-28T01:41:35.828Z,6.13
2019-05-28T01:44:04.878Z,4.77
2019-05-28T01:46:33.805Z,5.77
2019-05-28T01:49:02.622Z,3.50
2019-05-28T01:51:32.647Z,4.80
2019-05-28T01:54:01.446Z,6.63
2019-05-28T01:56:30.755Z,4.87
2019-05-28T01:58:59.551Z,4.33
2019-05-28T02:01:28.329Z,3.03
2019-05-28T02:03:57.693Z,3.70
2019-05-28T02:06:26.532Z,3.87
2019-05-28T02:08:55.375Z,6.10
2019-05-28T02:11:24.231Z,6.60
2019-05-28T02:13:53.031Z,5.70
2019-05-28T02:16:21.887Z,5.53
2019-05-28T02:18:50.776Z,6.53
2019-05-28T02:21:19.661Z,3.30
2019-05-28T02:23:48.538Z,3.97
2019-05-28T02:26:17.566Z,5.30
2019-05-28T02:28:46.352Z,4.13
2019-05-28T02:31:26.867Z,5.80
2019-05-28T02:33:45.641Z,4.73
2019-05-28T02:36:14.447Z,3.33
2019-05-28T02:38:43.247Z,3.10
2019-05-28T02:41:12.094Z,4.93
2019-05-28T02:43:40.845Z,5.83
2019-05-28T02:46:09.824Z,4.57
2019-05-28T02:48:38.542Z,5.40
2019-05-28T02:51:07.513Z,4.57
2019-05-28T02:53:36.370Z,2.63
2019-05-28T02:56:05.636Z,3.07
2019-05-28T02:58:36.371Z,2.63
2019-05-28T03:01:08.672Z,3.23
2019-05-28T03:03:37.609Z,3.10
2019-05-28T03:06:10.715Z,4.37
2019-05-28T03:08:39.637Z,5.33
2019-05-28T03:11:08.498Z,3.60
2019-05-28T03:13:37.371Z,3.83
2019-05-28T03:16:07.983Z,6.43
2019-05-28T03:18:39.762Z,6.50
2019-05-28T03:21:12.021Z,8.90
2019-05-28T03:23:42.048Z,4.87
2019-05-28T03:26:11.055Z,4.60
2019-05-28T03:28:40.114Z,7.10
2019-05-28T03:31:09.168Z,5.80
2019-05-28T03:33:37.916Z,5.90
2019-05-28T03:36:09.499Z,5.87
2019-05-28T03:38:39.265Z,4.67
2019-05-28T03:41:08.041Z,7.33
2019-05-28T03:43:36.810Z,7.33
2019-05-28T03:46:05.706Z,7.43
2019-05-28T03:48:34.589Z,7.23
2019-05-28T03:51:03.391Z,5.53
2019-05-28T03:53:32.171Z,4.27
2019-05-28T03:56:02.129Z,4.70
2019-05-28T03:58:30.986Z,6.27
2019-05-28T04:01:01.332Z,4.90
2019-05-28T04:03:30.102Z,3.73
2019-05-28T04:05:59.080Z,4.83
2019-05-28T04:08:27.996Z,6.63
2019-05-28T04:10:56.853Z,2.17
2019-05-28T04:13:25.649Z,5.50
2019-05-28T04:15:54.729Z,5.30
2019-05-28T04:18:23.520Z,3.67
2019-05-28T04:20:52.648Z,3.77
2019-05-28T04:23:21.377Z,6.07
2019-05-28T04:25:50.399Z,6.37
2019-05-28T04:28:19.225Z,4.73
2019-05-28T04:30:48.003Z,7.73
2019-05-28T04:33:16.803Z,2.73
2019-05-28T04:35:45.582Z,5.77
2019-05-28T04:38:14.447Z,2.70
2019-05-28T04:40:43.250Z,4.37
2019-05-28T04:43:12.038Z,4.00
2019-05-28T04:45:40.844Z,6.50
2019-05-28T04:48:09.616Z,3.37
2019-05-28T04:50:38.467Z,6.70
2019-05-28T04:53:07.287Z,3.87
2019-05-28T04:55:36.076Z,4.50
2019-05-28T04:58:05.255Z,5.03
2019-05-28T05:00:34.078Z,4.77
2019-05-28T05:03:02.894Z,4.90
2019-05-28T05:05:31.626Z,6.33
2019-05-28T05:08:00.452Z,6.00
2019-05-28T05:10:29.381Z,5.87
2019-05-28T05:12:58.134Z,6.60
2019-05-28T05:15:26.910Z,4.73
2019-05-28T05:17:56.378Z,5.20
2019-05-28T05:20:25.227Z,6.63
2019-05-28T05:22:54.018Z,6.23
2019-05-28T05:25:22.955Z,6.33
2019-05-28T05:27:51.831Z,5.37
2019-05-28T05:30:20.799Z,4.57
2019-05-28T05:32:49.642Z,2.77
2019-05-28T05:35:18.871Z,4.27
2019-05-28T05:37:47.893Z,4.60
2019-05-28T05:40:17.215Z,7.17
2019-05-28T05:42:46.117Z,4.57
2019-05-28T05:45:15.317Z,5.30
2019-05-28T05:47:44.321Z,5.77
2019-05-28T05:50:13.425Z,3.70
2019-05-28T05:52:42.378Z,5.10
2019-05-28T05:55:11.353Z,4.37
2019-05-28T05:57:40.154Z,4.77
2019-05-28T06:00:11.658Z,4.23
2019-05-28T06:02:40.466Z,3.27
2019-05-28T06:05:09.697Z,3.30
2019-05-28T06:07:38.823Z,3.93
2019-05-28T06:10:08.142Z,3.07
2019-05-28T06:12:37.008Z,4.17
2019-05-28T06:15:06.602Z,2.77
2019-05-28T06:17:35.521Z,6.00
2019-05-28T06:20:05.619Z,3.57
2019-05-28T06:22:34.396Z,4.60
2019-05-28T06:25:03.776Z,3.73
2019-05-28T06:27:32.652Z,2.33
2019-05-28T06:30:01.444Z,2.83
2019-05-28T06:32:33.092Z,4.43
2019-05-28T06:35:00.715Z,1.97
2019-05-28T06:37:29.545Z,5.50
2019-05-28T06:39:58.362Z,3.70
2019-05-28T06:42:27.150Z,4.40
2019-05-28T06:44:56.101Z,2.17
2019-05-28T06:47:25.128Z,2.97
2019-05-28T06:49:53.920Z,4.37
2019-05-28T06:52:22.692Z,4.23
2019-05-28T06:54:51.493Z,4.50
2019-05-28T06:57:23.161Z,3.30
2019-05-28T06:59:51.134Z,3.87
2019-05-28T07:02:19.913Z,5.00
2019-05-28T07:04:48.726Z,3.97
2019-05-28T07:07:17.690Z,5.23
2019-05-28T07:09:46.487Z,4.40
2019-05-28T07:12:18.024Z,3.33
2019-05-28T07:14:45.894Z,5.10
2019-05-28T07:17:14.881Z,2.43
2019-05-28T07:19:43.687Z,2.37
2019-05-28T07:22:12.468Z,3.83
2019-05-28T07:24:41.249Z,3.07
2019-05-28T07:27:10.327Z,3.30
2019-05-28T07:29:39.123Z,3.93
2019-05-28T07:32:07.917Z,4.13
2019-05-28T07:34:36.696Z,5.47
2019-05-28T07:37:05.993Z,3.83
2019-05-28T07:39:34.770Z,3.07
2019-05-28T07:42:03.624Z,5.50
2019-05-28T07:44:32.480Z,5.90
2019-05-28T07:47:01.351Z,5.93
2019-05-28T07:49:30.162Z,2.50
2019-05-28T07:51:58.944Z,4.87
2019-05-28T07:54:27.725Z,4.93
2019-05-28T07:56:56.719Z,6.90
2019-05-28T07:59:25.494Z,3.83
2019-05-28T08:01:54.342Z,4.13
2019-05-28T08:04:23.225Z,3.60
2019-05-28T08:06:55.078Z,3.77
2019-05-28T08:09:22.743Z,3.53
2019-05-28T08:11:51.524Z,3.87
2019-05-28T08:14:20.348Z,2.03
2019-05-28T08:16:52.564Z,3.50
2019-05-28T08:19:19.989Z,4.63
2019-05-28T08:21:48.779Z,4.60
2019-05-28T08:24:17.519Z,4.00
2019-05-28T08:26:46.403Z,2.07
2019-05-28T08:29:15.221Z,5.20
2019-05-28T08:31:44.006Z,8.30
2019-05-28T08:34:12.826Z,4.07
2019-05-28T08:36:42.039Z,4.40
2019-05-28T08:39:10.922Z,5.83
2019-05-28T08:41:39.824Z,5.00
2019-05-28T08:44:08.693Z,4.13
2019-05-28T08:46:37.576Z,4.00
2019-05-28T08:49:06.508Z,2.37
2019-05-28T08:51:35.384Z,5.90
2019-05-28T08:54:04.494Z,6.23
2019-05-28T08:56:33.412Z,4.63
2019-05-28T08:59:02.152Z,2.40
2019-05-28T09:01:31.333Z,5.10
2019-05-28T09:04:00.104Z,5.23
2019-05-28T09:06:28.962Z,11.17
2019-05-28T09:08:57.714Z,6.47
2019-05-28T09:11:26.608Z,6.23
2019-05-28T09:13:55.383Z,5.27
2019-05-28T09:16:24.256Z,5.53
2019-05-28T09:18:53.019Z,4.40
2019-05-28T09:21:21.924Z,3.00
2019-05-28T09:23:50.733Z,2.40
2019-05-28T09:26:19.559Z,5.10
2019-05-28T09:28:48.411Z,4.03
2019-05-28T09:31:17.226Z,3.47
2019-05-28T09:33:45.994Z,3.93
2019-05-28T09:36:14.967Z,5.30
2019-05-28T09:38:47.949Z,3.53
2019-05-28T09:41:17.143Z,2.93
2019-05-28T09:43:46.080Z,3.73
2019-05-28T09:46:15.029Z,3.57
2019-05-28T09:48:44.606Z,3.20
2019-05-28T09:51:13.459Z,1.93
2019-05-28T09:53:42.247Z,2.50
2019-05-28T09:56:11.198Z,5.30
2019-05-28T09:58:39.998Z,2.27
2019-05-28T10:01:09.191Z,4.87
2019-05-28T10:03:38.056Z,6.97
2019-05-28T10:06:16.476Z,3.33
2019-05-28T10:08:40.164Z,3.03
2019-05-28T10:11:08.976Z,2.03
2019-05-28T10:13:40.819Z,3.53
2019-05-28T10:16:08.532Z,4.00
2019-05-28T10:18:37.285Z,2.13
2019-05-28T10:21:17.797Z,2.63
2019-05-28T10:23:36.692Z,2.80
2019-05-28T10:26:05.793Z,5.27
2019-05-28T10:28:34.706Z,3.33
2019-05-28T10:31:07.853Z,4.13
2019-05-28T10:33:36.643Z,5.07
2019-05-28T10:36:05.503Z,3.63
2019-05-28T10:38:34.390Z,2.30
2019-05-28T10:41:03.673Z,1.53
2019-05-28T10:43:35.354Z,2.93
2019-05-28T10:46:05.331Z,1.50
2019-05-28T10:48:34.513Z,2.17
2019-05-28T10:51:04.059Z,3.67
2019-05-28T10:53:33.567Z,2.40
2019-05-28T10:56:02.466Z,4.00
2019-05-28T10:58:31.245Z,2.77
2019-05-28T11:01:00.034Z,3.80
2019-05-28T11:03:31.700Z,2.40
2019-05-28T11:06:00.628Z,3.50
2019-05-28T11:08:29.454Z,1.23
2019-05-28T11:10:58.633Z,3.47
2019-05-28T11:13:30.529Z,8.57
2019-05-28T11:15:59.541Z,2.77
2019-05-28T11:18:28.344Z,2.40
2019-05-28T11:20:59.315Z,2.23
2019-05-28T11:23:33.967Z,3.83
2019-05-28T11:26:04.370Z,2.90
2019-05-28T11:28:33.207Z,3.73
2019-05-28T11:31:02.028Z,3.37
2019-05-28T11:33:30.806Z,2.53
2019-05-28T11:35:59.804Z,2.47
2019-05-28T11:38:28.603Z,2.97
2019-05-28T11:40:57.482Z,6.23
2019-05-28T11:43:27.996Z,3.23
2019-05-28T11:45:57.483Z,3.37
2019-05-28T11:48:30.742Z,3.37
2019-05-28T11:50:59.667Z,2.67
2019-05-28T11:53:29.130Z,1.73
2019-05-28T11:56:01.232Z,3.53
2019-05-28T11:58:30.033Z,3.60
2019-05-28T12:00:58.940Z,2.90
2019-05-28T12:03:27.741Z,2.37
2019-05-28T12:05:56.702Z,5.47
2019-05-28T12:08:25.494Z,3.20
2019-05-28T12:10:54.319Z,2.77
2019-05-28T12:13:23.131Z,2.90
2019-05-28T12:15:52.435Z,2.43
2019-05-28T12:18:23.026Z,2.40
2019-05-28T12:20:52.113Z,2.03
2019-05-28T12:23:20.910Z,3.77
2019-05-28T12:25:49.878Z,2.65
2019-05-28T12:28:36.399Z,5.97
2019-05-28T12:30:49.249Z,1.83
2019-05-28T12:33:18.527Z,2.23
2019-05-28T12:35:50.505Z,3.53
2019-05-28T12:38:21.831Z,2.13
2019-05-28T12:40:50.767Z,3.10
2019-05-28T12:43:21.990Z,2.20
2019-05-28T12:45:51.690Z,2.87
2019-05-28T12:48:20.466Z,3.50
2019-05-28T12:50:49.240Z,3.33
2019-05-28T12:53:18.076Z,3.47
2019-05-28T12:55:47.053Z,4.17
2019-05-28T12:58:17.744Z,2.00
2019-05-28T13:00:46.915Z,2.77
2019-05-28T13:03:17.158Z,2.47
2019-05-28T13:05:46.071Z,3.57
2019-05-28T13:08:14.938Z,3.73
2019-05-28T13:10:43.826Z,5.17
2019-05-28T13:13:12.740Z,2.67
2019-05-28T13:15:42.596Z,2.57
2019-05-28T13:18:11.867Z,2.30
2019-05-28T13:20:40.673Z,3.20
2019-05-28T13:23:09.643Z,3.67
2019-05-28T13:25:38.512Z,2.60
2019-05-28T13:28:07.288Z,2.17
2019-05-28T13:30:36.064Z,4.80
2019-05-28T13:33:04.971Z,2.33
2019-05-28T13:35:33.797Z,3.08
2019-05-28T13:38:02.571Z,1.53
2019-05-28T13:40:31.423Z,3.73
2019-05-28T13:43:00.242Z,1.57
2019-05-28T13:45:29.109Z,3.80
2019-05-28T13:47:57.993Z,2.27
2019-05-28T13:50:29.402Z,1.50
2019-05-28T13:52:57.551Z,1.20
2019-05-28T13:55:26.395Z,2.20
2019-05-28T13:58:15.743Z,1.23
2019-05-28T14:00:36.776Z,1.90
2019-05-28T14:03:06.799Z,2.40
2019-05-28T14:05:39.032Z,1.57
2019-05-28T14:08:45.853Z,0.83
2019-05-28T14:11:06.841Z,1.13
2019-05-28T14:13:35.933Z,2.07
2019-05-28T14:16:06.036Z,1.80
2019-05-28T14:18:36.189Z,0.90
2019-05-28T14:21:08.502Z,2.67
2019-05-28T14:23:39.871Z,2.53
2019-05-28T14:26:13.636Z,3.87
2019-05-28T14:28:53.580Z,3.57
2019-05-28T14:31:20.557Z,3.10
2019-05-28T14:33:55.269Z,2.30
2019-05-28T14:36:37.641Z,2.83
2019-05-28T14:39:09.510Z,2.20
2019-05-28T14:41:39.268Z,3.77
2019-05-28T14:44:10.368Z,1.93
2019-05-28T14:46:45.404Z,2.60
2019-05-28T14:49:15.691Z,2.53
2019-05-28T14:51:44.973Z,0.93
2019-05-28T14:54:22.817Z,3.00
2019-05-28T14:56:52.005Z,2.70
2019-05-28T14:59:20.808Z,2.70
2019-05-28T15:01:49.758Z,1.20
2019-05-28T15:04:18.582Z,2.43
2019-05-28T15:06:47.469Z,1.07
2019-05-28T15:09:21.291Z,5.63
2019-05-28T15:11:48.345Z,1.50
2019-05-28T15:14:17.205Z,1.47
2019-05-28T15:16:46.090Z,2.00
2019-05-28T15:19:14.890Z,1.90
2019-05-28T15:21:43.685Z,2.57
2019-05-28T15:24:12.489Z,1.20
2019-05-28T15:26:41.444Z,1.00
2019-05-28T15:29:10.253Z,2.00
2019-05-28T15:31:39.295Z,2.17
2019-05-28T15:34:08.112Z,2.03
2019-05-28T15:36:40.184Z,2.07
2019-05-28T15:39:08.983Z,3.63
2019-05-28T15:41:37.828Z,2.73
2019-05-28T15:44:06.686Z,1.50
2019-05-28T15:46:42.707Z,1.17
2019-05-28T15:49:13.879Z,1.50
2019-05-28T15:51:42.672Z,2.93
2019-05-28T15:54:11.526Z,1.47
2019-05-28T15:56:41.368Z,3.40
2019-05-28T15:59:10.380Z,2.20
2019-05-28T16:01:41.592Z,0.60
2019-05-28T16:04:10.412Z,1.17
2019-05-28T16:06:39.384Z,2.43
2019-05-28T16:09:12.852Z,0.83
2019-05-28T16:11:42.084Z,2.63
2019-05-28T16:14:23.280Z,3.23
2019-05-28T16:16:56.094Z,0.93
2019-05-28T16:19:38.362Z,2.33
2019-05-28T16:22:08.911Z,3.13
2019-05-28T16:24:37.683Z,2.80
2019-05-28T16:27:08.497Z,1.17
2019-05-28T16:29:37.302Z,2.50
2019-05-28T16:32:06.260Z,1.00
2019-05-28T16:34:36.916Z,1.20
2019-05-28T16:37:08.369Z,1.90
2019-05-28T16:39:37.995Z,0.40
2019-05-28T16:42:06.959Z,1.60
2019-05-28T16:44:35.855Z,1.30
2019-05-28T16:47:17.558Z,1.80
2019-05-28T16:49:40.759Z,2.43
2019-05-28T16:52:10.899Z,0.30
2019-05-28T16:54:42.847Z,0.57
2019-05-28T16:57:11.829Z,1.03
2019-05-28T16:59:45.029Z,0.93
2019-05-28T17:02:16.408Z,1.07
2019-05-28T17:04:45.257Z,4.50
2019-05-28T17:07:14.663Z,2.93
2019-05-28T17:09:49.065Z,2.27
2019-05-28T17:12:20.440Z,1.40
2019-05-28T17:14:49.456Z,1.57
2019-05-28T17:17:18.513Z,1.93
2019-05-28T17:19:51.106Z,1.60
2019-05-28T17:22:25.508Z,1.20
2019-05-28T17:24:54.313Z,3.27
2019-05-28T17:27:26.500Z,2.57
2019-05-28T17:30:15.484Z,0.83
2019-05-28T17:32:28.738Z,2.00
2019-05-28T17:34:57.676Z,2.43
2019-05-28T17:37:27.187Z,2.13
2019-05-28T17:39:58.601Z,3.80
2019-05-28T17:42:28.132Z,1.57
2019-05-28T17:45:03.033Z,0.60
2019-05-28T17:47:42.625Z,1.87
2019-05-28T17:50:05.125Z,2.43
2019-05-28T17:52:34.697Z,1.50
2019-05-28T17:55:06.508Z,1.47
2019-05-28T17:57:38.225Z,1.23
2019-05-28T18:00:17.175Z,2.90
2019-05-28T18:02:48.802Z,2.30
2019-05-28T18:05:19.029Z,1.53
2019-05-28T18:07:51.292Z,1.33
2019-05-28T18:10:20.817Z,2.03
2019-05-28T18:12:49.614Z,1.33
2019-05-28T18:15:20.127Z,1.37
2019-05-28T18:17:50.372Z,1.83
2019-05-28T18:20:26.026Z,2.70
2019-05-28T18:22:55.160Z,2.10
2019-05-28T18:25:27.822Z,1.52
2019-05-28T18:27:56.770Z,2.33
2019-05-28T18:30:26.680Z,1.35
2019-05-28T18:33:04.540Z,3.27
2019-05-28T18:35:35.435Z,0.57
2019-05-28T18:38:05.865Z,3.50
2019-05-28T18:40:36.940Z,1.80
2019-05-28T18:43:08.147Z,0.70
2019-05-28T18:45:37.056Z,0.87
2019-05-28T18:48:05.943Z,2.00
2019-05-28T18:50:40.368Z,2.60
2019-05-28T18:53:12.176Z,2.53
2019-05-28T18:55:48.950Z,0.77
2019-05-28T18:58:17.968Z,2.23
2019-05-28T19:00:49.638Z,2.03
2019-05-28T19:03:20.153Z,0.83
2019-05-28T19:05:49.541Z,1.10
2019-05-28T19:08:19.071Z,1.23
2019-05-28T19:10:49.337Z,1.03
2019-05-28T19:13:18.965Z,2.47
2019-05-28T19:15:50.255Z,1.83
2019-05-28T19:18:19.051Z,4.03
2019-05-28T19:20:49.013Z,0.50
2019-05-28T19:23:17.903Z,1.03
2019-05-28T19:25:51.373Z,2.50
2019-05-28T19:28:21.586Z,1.77
2019-05-28T19:30:51.381Z,2.47
2019-05-28T19:33:20.744Z,1.20
2019-05-28T19:35:49.723Z,1.77
2019-05-28T19:38:19.249Z,0.80
2019-05-28T19:40:48.033Z,4.53
2019-05-28T19:43:16.884Z,0.93
2019-05-28T19:45:57.908Z,1.83
2019-05-28T19:48:28.824Z,2.03
2019-05-28T19:51:00.947Z,3.10
2019-05-28T19:53:29.785Z,1.63
2019-05-28T19:56:04.122Z,0.70
2019-05-28T19:58:34.369Z,1.20
2019-05-28T20:01:03.170Z,1.03
2019-05-28T20:03:31.943Z,3.53
2019-05-28T20:06:00.934Z,1.47
2019-05-28T20:08:29.680Z,1.10
2019-05-28T20:10:58.465Z,3.87
2019-05-28T20:13:27.533Z,1.90
2019-05-28T20:15:57.049Z,2.03
2019-05-28T20:18:27.191Z,2.00
2019-05-28T20:20:56.372Z,1.80
2019-05-28T20:23:26.057Z,0.70
2019-05-28T20:25:55.931Z,1.10
2019-05-28T20:28:24.953Z,1.83
2019-05-28T20:30:53.773Z,1.43
2019-05-28T20:33:22.713Z,1.17
2019-05-28T20:35:51.661Z,1.03
2019-05-28T20:38:21.037Z,1.80
2019-05-28T20:40:49.796Z,1.77
2019-05-28T20:43:18.677Z,1.07
2019-05-28T20:45:50.947Z,1.40
2019-05-28T20:48:19.811Z,0.40
2019-05-28T20:51:07.302Z,1.20
2019-05-28T20:53:35.954Z,1.80
2019-05-28T20:55:58.752Z,0.60
2019-05-28T20:58:39.336Z,1.17
2019-05-28T21:00:58.203Z,1.93
2019-05-28T21:03:26.953Z,1.70
2019-05-28T21:05:57.115Z,1.73
2019-05-28T21:08:25.975Z,1.77
2019-05-28T21:10:54.994Z,1.73
2019-05-28T21:13:23.887Z,1.50
2019-05-28T21:15:53.359Z,0.77
2019-05-28T21:18:22.165Z,2.80
2019-05-28T21:20:52.167Z,1.13
2019-05-28T21:23:21.788Z,0.50
2019-05-28T21:25:52.026Z,0.60
2019-05-28T21:28:21.141Z,0.87
2019-05-28T21:30:50.552Z,1.10
2019-05-28T21:33:19.986Z,0.83
2019-05-28T21:35:48.992Z,2.23
2019-05-28T21:38:19.108Z,0.83
2019-05-28T21:40:47.897Z,3.90
2019-05-28T21:43:16.715Z,1.70
2019-05-28T21:45:45.617Z,0.93
2019-05-28T21:48:14.374Z,3.70
2019-05-28T21:50:43.265Z,2.80
2019-05-28T21:53:12.052Z,2.43
2019-05-28T21:55:40.861Z,1.63
2019-05-28T21:58:09.680Z,0.80
2019-05-28T22:00:46.322Z,1.40
2019-05-28T22:03:15.763Z,1.20
2019-05-28T22:05:44.680Z,2.63
2019-05-28T22:08:13.594Z,1.27
2019-05-28T22:10:42.486Z,3.33
2019-05-28T22:13:20.373Z,0.80
2019-05-28T22:15:41.951Z,4.50
2019-05-28T22:18:10.731Z,2.57
2019-05-28T22:20:39.578Z,1.47
2019-05-28T22:23:08.784Z,2.07
2019-05-28T22:25:37.925Z,4.17
2019-05-28T22:28:07.202Z,3.53
2019-05-28T22:30:36.251Z,0.97
2019-05-28T22:33:05.156Z,0.97
2019-05-28T22:35:33.977Z,3.63
2019-05-28T22:38:03.356Z,0.70
2019-05-28T22:40:32.557Z,1.97
2019-05-28T22:43:03.612Z,3.57
2019-05-28T22:45:32.953Z,1.93
2019-05-28T22:48:05.582Z,1.60
2019-05-28T22:50:32.710Z,2.20
2019-05-28T22:53:01.854Z,2.60
2019-05-28T22:55:30.865Z,2.40
2019-05-28T22:58:00.203Z,3.40
2019-05-28T23:00:29.136Z,1.85
2019-05-28T23:02:58.809Z,0.93
2019-05-28T23:05:27.867Z,2.20
2019-05-28T23:07:56.708Z,2.93
2019-05-28T23:10:25.550Z,1.92
2019-05-28T23:12:54.342Z,2.33
2019-05-28T23:15:23.197Z,2.10
2019-05-28T23:17:52.124Z,2.27
2019-05-28T23:20:21.003Z,0.83
2019-05-28T23:22:49.779Z,1.23
2019-05-28T23:25:18.901Z,2.43
2019-05-28T23:27:47.829Z,1.97
2019-05-28T23:30:24.535Z,2.70
2019-05-28T23:32:47.557Z,2.63
2019-05-28T23:35:16.425Z,1.57
2019-05-28T23:37:45.289Z,2.60
2019-05-28T23:40:14.464Z,6.33
2019-05-28T23:42:43.266Z,6.63
2019-05-28T23:45:13.986Z,1.27
2019-05-28T23:47:42.886Z,2.87
2019-05-28T23:50:14.785Z,2.60
2019-05-28T23:52:42.629Z,1.87
2019-05-28T23:55:11.846Z,1.50
2019-05-28T23:57:40.882Z,3.60
